Time;durP1;ratioP1;P1;durP2;ratioP2;P2;SDS_P1;SDS_P2;PMS_P1;PMS_P2;Temp;Humidity;BMP_temperature;BMP_pressure;BME280_temperature;BME280_humidity;BME280_pressure;Samples;Min_cycle;Max_cycle;Signal;HPM_P1;HPM_P2
2024/01/23 00:02:02;;;;;;;1.63;1.23;;;;;;;20.27;41.89;96922.03;20760764;28;20050;-75
2024/01/23 00:12:22;;;;;;;1.52;1.23;;;;;;;20.23;42.05;96937.34;20747704;28;20561;-76
2024/01/23 00:22:41;;;;;;;1.65;1.20;;;;;;;20.22;41.93;96930.31;20809733;28;20088;-76
2024/01/23 00:33:01;;;;;;;1.65;1.52;;;;;;;20.16;42.08;96926.22;20801223;28;20088;-76
2024/01/23 00:43:21;;;;;;;1.58;1.20;;;;;;;20.12;42.08;96928.00;20744257;28;20050;-76
2024/01/23 00:53:41;;;;;;;1.30;1.00;;;;;;;20.09;42.00;96942.16;20729608;28;20058;-75
2024/01/23 01:04:00;;;;;;;1.45;1.00;;;;;;;20.04;41.99;96964.75;20742404;28;20053;-75
2024/01/23 01:14:19;;;;;;;1.70;0.95;;;;;;;20.01;42.07;96960.00;20794001;28;20050;-76
2024/01/23 01:24:39;;;;;;;1.55;0.95;;;;;;;19.95;42.05;96947.75;20768948;28;20073;-75
2024/01/23 01:34:58;;;;;;;1.63;1.13;;;;;;;19.91;42.07;96950.31;20770401;28;20054;-76
2024/01/23 01:45:17;;;;;;;1.00;0.90;;;;;;;19.86;41.98;96942.38;20773493;28;20064;-75
2024/01/23 01:55:37;;;;;;;2.10;0.80;;;;;;;19.87;42.09;96948.59;20737014;28;20053;-76
2024/01/23 02:05:58;;;;;;;0.98;0.82;;;;;;;19.78;42.07;96932.41;20763866;28;20148;-76
2024/01/23 02:16:18;;;;;;;1.52;0.90;;;;;;;19.74;42.05;96928.75;20820277;28;20450;-76
2024/01/23 02:26:38;;;;;;;1.13;0.80;;;;;;;19.74;42.16;96915.25;20779438;28;20054;-75
2024/01/23 02:36:57;;;;;;;1.60;1.00;;;;;;;19.70;41.88;96914.28;20695064;28;20073;-73
2024/01/23 02:47:17;;;;;;;1.50;1.00;;;;;;;19.65;42.11;96925.25;20783060;28;20049;-73
2024/01/23 02:57:36;;;;;;;1.00;0.70;;;;;;;19.64;42.00;96947.97;20751273;28;20097;-73
2024/01/23 03:07:55;;;;;;;1.15;0.90;;;;;;;19.61;42.10;96973.72;20778483;28;20054;-73
2024/01/23 03:18:15;;;;;;;1.08;0.80;;;;;;;19.53;42.15;96975.31;20790866;28;20080;-72
2024/01/23 03:28:34;;;;;;;0.75;0.70;;;;;;;19.50;42.21;96973.28;20750051;28;20461;-72
2024/01/23 03:38:53;;;;;;;1.02;0.68;;;;;;;19.49;42.19;96993.28;20777531;28;20064;-73
2024/01/23 03:49:13;;;;;;;1.13;0.85;;;;;;;19.44;42.01;97006.16;20772444;28;20097;-72
2024/01/23 03:59:32;;;;;;;0.93;0.80;;;;;;;19.40;42.33;97005.22;20774982;28;20049;-72
2024/01/23 04:09:52;;;;;;;1.10;0.70;;;;;;;19.34;42.23;97007.28;20746366;28;20049;-73
2024/01/23 04:20:11;;;;;;;0.73;0.50;;;;;;;19.31;42.09;97007.94;20745570;28;20065;-72
2024/01/23 04:30:31;;;;;;;0.50;0.50;;;;;;;19.31;42.09;97018.72;20758499;28;20053;-72
2024/01/23 04:40:50;;;;;;;0.65;0.63;;;;;;;19.28;42.19;97024.75;20757109;28;20084;-72
2024/01/23 04:51:12;;;;;;;0.60;0.60;;;;;;;19.24;42.15;97023.81;20773509;28;20454;-72
2024/01/23 05:01:31;;;;;;;0.98;0.82;;;;;;;19.20;42.22;97049.84;20767927;28;20057;-72
2024/01/23 05:11:50;;;;;;;0.60;0.60;;;;;;;19.16;42.20;97055.88;20750624;28;20074;-76
2024/01/23 05:22:10;;;;;;;0.68;0.65;;;;;;;19.12;42.47;97070.31;20803808;28;20066;-75
2024/01/23 05:32:29;;;;;;;0.80;0.80;;;;;;;19.10;42.40;97088.75;20773799;28;20049;-75
2024/01/23 05:42:49;;;;;;;2.25;0.82;;;;;;;19.13;43.44;97091.63;20739756;28;20108;-76
2024/01/23 05:53:09;;;;;;;0.93;0.80;;;;;;;19.26;43.48;97097.22;20782633;28;20509;-76
2024/01/23 06:03:29;;;;;;;0.70;0.60;;;;;;;19.30;43.65;97122.47;20747361;28;20065;-76
2024/01/23 06:13:49;;;;;;;2.85;0.70;;;;;;;19.33;43.82;97138.84;20783003;28;20058;-75
2024/01/23 06:24:09;;;;;;;2.47;0.70;;;;;;;19.38;43.80;97151.41;20764470;28;20152;-76
2024/01/23 06:34:29;;;;;;;15.57;3.42;;;;;;;19.41;44.01;97160.81;20741128;28;20069;-75
2024/01/23 06:44:48;;;;;;;23.67;4.43;;;;;;;19.46;44.17;97180.34;20718713;28;20104;-75
2024/01/23 06:55:08;;;;;;;17.05;4.60;;;;;;;19.58;44.13;97184.34;20707194;28;20054;-75
2024/01/23 07:05:28;;;;;;;19.52;4.88;;;;;;;19.59;43.78;97205.66;20744980;28;20169;-75
2024/01/23 07:15:48;;;;;;;15.80;4.93;;;;;;;19.67;43.74;97226.50;20735144;28;20128;-76
2024/01/23 07:26:08;;;;;;;13.40;4.85;;;;;;;19.72;43.54;97276.97;20763407;28;20164;-76
2024/01/23 07:36:27;;;;;;;13.15;4.53;;;;;;;19.78;43.52;97294.66;20773873;28;20104;-76
2024/01/23 07:46:48;;;;;;;13.00;4.30;;;;;;;19.86;43.26;97336.34;20706874;28;20483;-75
2024/01/23 07:57:07;;;;;;;11.40;4.72;;;;;;;19.91;43.15;97366.72;20741565;28;20054;-76
2024/01/23 08:07:26;;;;;;;12.70;4.28;;;;;;;19.99;42.92;97391.41;20748556;28;20379;-76
2024/01/23 08:17:46;;;;;;;10.18;3.70;;;;;;;20.08;42.66;97373.31;20760919;28;20463;-75
2024/01/23 08:28:05;;;;;;;12.43;4.30;;;;;;;20.13;42.50;97394.78;20746689;28;20053;-75
2024/01/23 08:38:25;;;;;;;9.30;4.25;;;;;;;20.23;42.29;97416.16;20772733;28;20671;-75
2024/01/23 08:48:44;;;;;;;4.35;1.88;;;;;;;20.01;34.86;97430.53;20785443;28;20053;-76
2024/01/23 08:59:04;;;;;;;7.43;3.53;;;;;;;20.21;38.40;97441.94;20777961;28;20038;-76
2024/01/23 09:09:24;;;;;;;7.05;3.28;;;;;;;20.31;39.10;97449.78;20838246;28;20303;-75
2024/01/23 09:19:43;;;;;;;8.75;3.17;;;;;;;20.34;39.72;97479.69;20791082;28;20108;-75
2024/01/23 09:30:04;;;;;;;7.55;2.90;;;;;;;20.42;40.36;97497.06;20780582;28;20100;-75
2024/01/23 09:40:24;;;;;;;7.90;2.75;;;;;;;20.52;40.57;97507.66;20781710;28;20049;-75
2024/01/23 09:50:45;;;;;;;5.90;2.80;;;;;;;20.61;40.61;97518.53;20766773;28;20112;-75
2024/01/23 10:01:05;;;;;;;6.10;2.72;;;;;;;20.65;40.84;97541.16;20705378;28;20057;-75
2024/01/23 10:11:28;;;;;;;5.18;2.60;;;;;;;20.71;40.55;97539.88;20776629;28;20057;-75
2024/01/23 10:21:48;;;;;;;6.63;2.80;;;;;;;20.70;40.40;97562.69;20739556;28;20058;-76
2024/01/23 10:32:08;;;;;;;5.00;2.67;;;;;;;20.76;40.59;97568.75;20764397;28;20054;-75
2024/01/23 10:42:28;;;;;;;4.65;2.42;;;;;;;20.82;40.60;97570.19;20763158;28;20112;-75
2024/01/23 10:52:48;;;;;;;3.72;2.05;;;;;;;20.82;40.69;97585.66;20737849;28;20426;-75
2024/01/23 11:03:09;;;;;;;4.75;2.63;;;;;;;20.86;40.67;97573.88;20778232;28;20081;-72
2024/01/23 11:13:43;;;;;;;3.70;2.20;;;;;;;20.90;40.46;97585.69;20796840;28;20057;-73
2024/01/23 11:24:03;;;;;;;4.28;2.30;;;;;;;20.96;40.40;97599.88;20802920;28;20486;-73
2024/01/23 11:34:22;;;;;;;4.35;2.30;;;;;;;21.00;40.41;97608.97;20797262;28;20435;-73
2024/01/23 11:44:42;;;;;;;3.55;1.83;;;;;;;21.03;40.33;97599.41;20798921;28;20054;-73
2024/01/23 11:55:01;;;;;;;3.10;2.03;;;;;;;21.01;40.42;97621.41;20751059;28;20058;-73
2024/01/23 12:05:21;;;;;;;2.60;1.83;;;;;;;21.01;40.24;97618.72;20738289;28;20065;-73
2024/01/23 12:15:41;;;;;;;3.42;1.80;;;;;;;20.92;40.26;97597.00;20775428;28;20061;-73
2024/01/23 12:26:01;;;;;;;3.40;1.70;;;;;;;20.91;40.40;97630.63;20774571;28;20061;-72
2024/01/23 12:36:22;;;;;;;3.75;1.95;;;;;;;20.85;40.48;97625.63;20758887;28;20049;-73
2024/01/23 12:46:42;;;;;;;2.63;1.70;;;;;;;20.85;40.51;97641.88;20743849;28;20054;-72
2024/01/23 12:57:01;;;;;;;2.38;1.60;;;;;;;20.81;40.52;97635.50;20736622;28;20068;-73
2024/01/23 13:07:21;;;;;;;2.25;1.40;;;;;;;20.74;40.64;97644.88;20770289;28;20125;-72
2024/01/23 13:17:40;;;;;;;2.53;1.35;;;;;;;20.68;40.75;97648.84;20769489;28;20276;-72
2024/01/23 13:27:59;;;;;;;3.33;1.52;;;;;;;20.65;40.58;97664.88;20768142;28;20081;-73
2024/01/23 13:38:20;;;;;;;3.53;1.73;;;;;;;20.64;40.78;97679.53;20751917;28;20050;-73
2024/01/23 13:48:40;;;;;;;3.60;1.58;;;;;;;20.54;40.92;97673.25;20766227;28;20367;-73
2024/01/23 13:58:59;;;;;;;3.35;1.50;;;;;;;20.53;40.82;97703.31;20725759;28;20590;-73
2024/01/23 14:09:18;;;;;;;2.30;1.58;;;;;;;20.51;40.75;97702.84;20738372;28;20046;-73
2024/01/23 14:19:38;;;;;;;2.67;1.60;;;;;;;20.49;40.81;97710.47;20737541;28;20109;-72
2024/01/23 14:29:57;;;;;;;1.70;1.20;;;;;;;20.42;41.00;97715.50;20764649;28;20077;-73
2024/01/23 14:40:18;;;;;;;1.42;1.30;;;;;;;20.41;40.92;97738.28;20732279;28;20108;-73
2024/01/23 14:50:37;;;;;;;1.70;1.25;;;;;;;20.35;41.14;97745.72;20743255;28;20057;-73
2024/01/23 15:00:57;;;;;;;4.55;1.80;;;;;;;20.32;36.94;97766.03;20767099;28;20050;-73
2024/01/23 15:11:16;;;;;;;2.53;1.45;;;;;;;20.24;39.85;97783.00;20738030;28;20046;-72
2024/01/23 15:21:35;;;;;;;3.25;1.50;;;;;;;20.25;40.08;97808.19;20778837;28;20066;-72
2024/01/23 15:31:58;;;;;;;2.10;1.48;;;;;;;20.24;39.77;97812.78;20740492;28;20088;-72
2024/01/23 15:42:17;;;;;;;2.95;1.50;;;;;;;20.26;40.00;97801.66;20788586;28;20061;-76
2024/01/23 15:52:36;;;;;;;1.70;1.30;;;;;;;20.32;40.05;97817.47;20796923;28;20570;-75
2024/01/23 16:02:56;;;;;;;1.63;1.10;;;;;;;20.37;40.48;97829.31;20810471;28;20494;-76
2024/01/23 16:13:15;;;;;;;2.33;1.30;;;;;;;20.34;40.25;97839.59;20817559;28;20053;-76
2024/01/23 16:23:34;;;;;;;2.03;1.30;;;;;;;20.39;40.13;97846.03;20793940;28;20494;-75
2024/01/23 16:33:54;;;;;;;1.92;1.20;;;;;;;20.44;40.25;97852.13;20746954;28;20057;-75
2024/01/23 16:44:13;;;;;;;1.60;1.30;;;;;;;20.48;40.13;97879.38;20805562;28;20053;-76
2024/01/23 16:54:32;;;;;;;2.53;1.30;;;;;;;20.54;39.24;97878.16;20780648;28;20061;-77
2024/01/23 17:04:52;;;;;;;4.72;1.15;;;;;;;20.50;40.01;97885.28;20768525;28;20046;-77
2024/01/23 17:15:11;;;;;;;2.35;1.40;;;;;;;20.65;42.19;97881.50;20767131;28;20434;-75
2024/01/23 17:25:30;;;;;;;3.75;1.40;;;;;;;20.71;42.31;97882.97;20765672;28;20104;-76
2024/01/23 17:35:49;;;;;;;2.17;1.15;;;;;;;20.68;41.89;97887.09;20747110;28;20049;-76
2024/01/23 17:46:09;;;;;;;4.18;1.10;;;;;;;20.76;41.91;97876.63;20738276;28;20414;-75
2024/01/23 17:56:29;;;;;;;3.05;1.30;;;;;;;20.77;41.70;97870.91;20737865;28;20049;-76
2024/01/23 18:06:48;;;;;;;5.32;1.23;;;;;;;20.83;41.59;97860.75;20729450;28;20046;-73
2024/01/23 18:17:09;;;;;;;2.58;1.10;;;;;;;20.84;41.63;97855.06;20730625;28;20129;-72
2024/01/23 18:27:31;;;;;;;2.63;1.13;;;;;;;20.89;41.39;97827.03;20730141;28;20050;-72
2024/01/23 18:37:51;;;;;;;2.35;1.20;;;;;;;20.95;41.23;97820.38;20736608;28;20089;-72
2024/01/23 18:48:11;;;;;;;1.88;1.00;;;;;;;20.97;41.16;97810.03;20694163;28;20069;-72
2024/01/23 18:58:30;;;;;;;1.42;1.10;;;;;;;20.99;41.34;97810.53;20731280;28;20060;-72
2024/01/23 19:08:50;;;;;;;1.85;1.00;;;;;;;20.94;41.26;97827.72;20732203;28;20392;-72
2024/01/23 19:19:12;;;;;;;1.63;1.10;;;;;;;20.91;41.37;97830.22;20680172;28;20058;-73
2024/01/23 19:29:51;;;;;;;1.42;0.95;;;;;;;20.89;41.66;97816.19;20669562;28;20046;-73
2024/01/23 19:40:11;;;;;;;0.90;0.75;;;;;;;20.89;41.77;97794.53;20761318;28;20058;-72
2024/01/23 19:50:30;;;;;;;3.25;1.13;;;;;;;20.84;41.75;97778.44;20762517;28;20058;-72
2024/01/23 20:00:50;;;;;;;3.95;1.13;;;;;;;20.82;41.92;97778.72;20765783;28;20061;-73
2024/01/23 20:11:09;;;;;;;1.40;0.90;;;;;;;20.78;41.94;97802.13;20737468;28;20125;-72
2024/01/23 20:21:28;;;;;;;1.88;0.80;;;;;;;20.75;41.73;97756.69;20715162;28;20058;-72
2024/01/23 20:31:48;;;;;;;2.15;0.82;;;;;;;20.76;42.27;97746.66;20747849;28;20479;-72
2024/01/23 20:42:11;;;;;;;1.17;0.85;;;;;;;20.71;42.51;97744.88;20729091;28;20104;-72
2024/01/23 20:52:35;;;;;;;3.47;0.93;;;;;;;20.72;42.89;97725.63;20722797;28;20054;-73
2024/01/23 21:02:55;;;;;;;2.38;1.33;;;;;;;20.69;43.20;97733.56;20770734;28;20542;-72
2024/01/23 21:13:14;;;;;;;2.65;1.20;;;;;;;20.68;43.65;97723.81;20710875;28;20061;-72
2024/01/23 21:23:33;;;;;;;5.40;1.40;;;;;;;20.65;43.92;97713.63;20784208;28;20061;-72
2024/01/23 21:33:53;;;;;;;4.97;1.20;;;;;;;20.61;43.95;97718.06;20815549;28;20105;-72
2024/01/23 21:44:12;;;;;;;2.22;1.10;;;;;;;20.54;43.64;97688.66;20792356;28;20050;-73
2024/01/23 21:54:35;;;;;;;3.03;1.23;;;;;;;20.53;43.84;97678.97;20732577;28;20076;-73
2024/01/23 22:04:55;;;;;;;1.92;1.02;;;;;;;20.49;43.89;97643.59;20791957;28;20080;-73
2024/01/23 22:15:15;;;;;;;2.72;1.15;;;;;;;20.40;44.08;97626.50;20754203;28;20687;-73
2024/01/23 22:25:34;;;;;;;4.20;1.15;;;;;;;20.42;44.67;97637.81;20774658;28;20411;-73
2024/01/23 22:35:55;;;;;;;3.53;1.30;;;;;;;20.38;45.08;97628.72;20738276;28;20490;-73
2024/01/23 22:46:14;;;;;;;3.85;1.30;;;;;;;20.33;45.51;97610.72;20725290;28;20592;-75
2024/01/23 22:56:34;;;;;;;3.95;1.40;;;;;;;20.32;45.13;97582.03;20733839;28;20034;-75
2024/01/23 23:06:53;;;;;;;5.10;1.60;;;;;;;20.26;45.40;97575.16;20738566;28;20062;-75
2024/01/23 23:17:12;;;;;;;2.20;1.00;;;;;;;20.20;45.45;97562.88;20776445;28;20053;-75
2024/01/23 23:27:32;;;;;;;2.42;1.20;;;;;;;20.18;45.52;97535.34;20771245;28;20046;-75
2024/01/23 23:37:51;;;;;;;4.60;1.15;;;;;;;20.12;45.30;97509.53;20772521;28;20096;-75
2024/01/23 23:48:11;;;;;;;2.92;1.20;;;;;;;20.10;45.40;97480.06;20763834;28;20482;-76
2024/01/23 23:58:30;;;;;;;2.95;1.20;;;;;;;20.06;45.32;97457.47;20753610;28;20127;-73
